Amery, WI

12:56 AM CDT on October 31, 2014 (GMT -0500)
KWIBALSA2 | Change Station
CLOSE
Current Station
Personal Weather Station
Location: Balsam Lake, WI
Elevation: 1191 ft
Nearby Weather Stations

Elev 1191 ft 45.46 °N, 92.41 °W | Updated 32 seconds ago

Partly Cloudy
Partly Cloudy
28.8 °F
Feels Like 23 °F
N
5.8
Wind Variable Wind from NNW
Gusts 5.8 mph

Today
High -- | Low -- °F
--% Chance of Precip.
Yesterday
High -- | Low -- °F
Precip. -- in
7:47 AM 5:58 PM
First Quarter, 51% visible
Pressure 30.39 in
Visibility 10.0 miles
Clouds Clear
Windchill 23 °F
Dew Point -4 °F
Humidity 23%
Rainfall 0.00 in
Snow Depth Not available.
UV 0 out of 12
Pollen .10 out of 12
Air Quality Not available.
Flu Activity Not available.
METAR KOEO 310535Z AUTO 34010G20KT 10SM CLR M01/M08 A3039 RMK AO2 T10081083

More Conditions Fewer Conditions

Pressure 30.39 in
Visibility 10.0 miles
Clouds Clear
Windchill 23 °F
Dew Point -4 °F
Humidity 23%
Rainfall 0.00 in
Snow Depth Not available.
UV 0 out of 12
Pollen .10 out of 12
Air Quality Not available.
Flu Activity Not available.
METAR KOEO 310535Z AUTO 34010G20KT 10SM CLR M01/M08 A3039 RMK AO2 T10081083

More Conditions Fewer Conditions

10-Day Weather Forecast

Almanac

Astronomy

Oct. 31, 2014 Rise Set
Actual Time
Civil Twilight
Nautical Twilight
Astronomical Twilight
Moon
Length of Visible Light
Length of Day
Tomorrow will be .
, % of the Moon is Illuminated

Today's Extremes

State Highs State Lows

Community

WunderPhotos

Upload Photos

1,766,570 photos uploaded!

WunderBlogs® & News

Nearby

Air Quality

  Air Quality AQ Index Pollutant
Not available.

Snow Depth

Station Depth Elevation

Earthquake Activity

City Distance Mag. Time & Date
Minimum magnitude displayed is 2.5.

Coastal Water Temperatures

Place Temperature

Nearby Weather Stations